sensor_id;sensor_type;location;lat;lon;timestamp;P1;durP1;ratioP1;P2;durP2;ratioP2
43678;SDS011;29279;50.858;4.392;2023-12-04T00:00:33;13.13;;;6.40;;
43678;SDS011;29279;50.858;4.392;2023-12-04T00:25:28;14.95;;;7.05;;
43678;SDS011;29279;50.858;4.392;2023-12-04T00:27:53;12.32;;;6.15;;
43678;SDS011;29279;50.858;4.392;2023-12-04T00:30:19;14.80;;;6.35;;
43678;SDS011;29279;50.858;4.392;2023-12-04T00:32:45;13.48;;;7.07;;
43678;SDS011;29279;50.858;4.392;2023-12-04T00:35:10;14.50;;;6.70;;
43678;SDS011;29279;50.858;4.392;2023-12-04T00:37:36;16.58;;;7.65;;
43678;SDS011;29279;50.858;4.392;2023-12-04T00:40:03;16.77;;;7.00;;
43678;SDS011;29279;50.858;4.392;2023-12-04T00:42:30;13.98;;;7.15;;
43678;SDS011;29279;50.858;4.392;2023-12-04T00:44:56;13.90;;;6.82;;
43678;SDS011;29279;50.858;4.392;2023-12-04T00:47:22;15.07;;;7.75;;
43678;SDS011;29279;50.858;4.392;2023-12-04T00:49:48;12.40;;;6.07;;
43678;SDS011;29279;50.858;4.392;2023-12-04T00:52:13;17.38;;;7.70;;
43678;SDS011;29279;50.858;4.392;2023-12-04T00:54:39;15.85;;;6.70;;
43678;SDS011;29279;50.858;4.392;2023-12-04T00:57:06;14.63;;;7.13;;
43678;SDS011;29279;50.858;4.392;2023-12-04T00:59:31;13.88;;;6.53;;
43678;SDS011;29279;50.858;4.392;2023-12-04T01:01:57;12.20;;;6.72;;
43678;SDS011;29279;50.858;4.392;2023-12-04T01:04:23;14.73;;;7.50;;
43678;SDS011;29279;50.858;4.392;2023-12-04T01:06:48;12.45;;;7.28;;
43678;SDS011;29279;50.858;4.392;2023-12-04T01:09:14;11.55;;;6.32;;
43678;SDS011;29279;50.858;4.392;2023-12-04T01:11:39;13.45;;;6.70;;
43678;SDS011;29279;50.858;4.392;2023-12-04T01:14:05;15.27;;;5.90;;
43678;SDS011;29279;50.858;4.392;2023-12-04T01:19:53;13.73;;;5.93;;
43678;SDS011;29279;50.858;4.392;2023-12-04T01:22:19;12.40;;;6.28;;
43678;SDS011;29279;50.858;4.392;2023-12-04T01:24:44;11.93;;;5.63;;
43678;SDS011;29279;50.858;4.392;2023-12-04T01:27:10;12.93;;;6.43;;
43678;SDS011;29279;50.858;4.392;2023-12-04T01:29:36;11.07;;;6.32;;
43678;SDS011;29279;50.858;4.392;2023-12-04T01:32:02;11.70;;;5.60;;
43678;SDS011;29279;50.858;4.392;2023-12-04T01:34:28;12.32;;;5.97;;
43678;SDS011;29279;50.858;4.392;2023-12-04T01:36:53;9.73;;;5.30;;
43678;SDS011;29279;50.858;4.392;2023-12-04T01:39:19;10.93;;;5.15;;
43678;SDS011;29279;50.858;4.392;2023-12-04T01:41:45;10.23;;;5.68;;
43678;SDS011;29279;50.858;4.392;2023-12-04T01:44:10;12.32;;;5.55;;
43678;SDS011;29279;50.858;4.392;2023-12-04T01:46:36;10.73;;;5.82;;
43678;SDS011;29279;50.858;4.392;2023-12-04T01:49:03;9.93;;;4.85;;
43678;SDS011;29279;50.858;4.392;2023-12-04T01:51:29;11.63;;;4.43;;
43678;SDS011;29279;50.858;4.392;2023-12-04T01:53:55;9.18;;;5.07;;
43678;SDS011;29279;50.858;4.392;2023-12-04T01:56:24;10.23;;;4.95;;
43678;SDS011;29279;50.858;4.392;2023-12-04T01:58:50;9.23;;;4.20;;
43678;SDS011;29279;50.858;4.392;2023-12-04T02:01:16;10.63;;;5.00;;
43678;SDS011;29279;50.858;4.392;2023-12-04T02:03:44;10.35;;;4.95;;
43678;SDS011;29279;50.858;4.392;2023-12-04T02:06:10;12.95;;;5.07;;
43678;SDS011;29279;50.858;4.392;2023-12-04T02:08:38;9.18;;;4.03;;
43678;SDS011;29279;50.858;4.392;2023-12-04T02:11:05;9.65;;;5.10;;
43678;SDS011;29279;50.858;4.392;2023-12-04T02:13:31;10.98;;;5.43;;
43678;SDS011;29279;50.858;4.392;2023-12-04T02:15:57;12.90;;;6.10;;
43678;SDS011;29279;50.858;4.392;2023-12-04T02:18:27;11.68;;;5.07;;
43678;SDS011;29279;50.858;4.392;2023-12-04T02:20:53;10.05;;;5.07;;
43678;SDS011;29279;50.858;4.392;2023-12-04T02:23:18;12.63;;;5.47;;
43678;SDS011;29279;50.858;4.392;2023-12-04T02:25:44;8.23;;;3.88;;
43678;SDS011;29279;50.858;4.392;2023-12-04T02:28:11;8.70;;;4.72;;
43678;SDS011;29279;50.858;4.392;2023-12-04T02:30:38;11.82;;;5.53;;
43678;SDS011;29279;50.858;4.392;2023-12-04T02:33:08;9.13;;;4.70;;
43678;SDS011;29279;50.858;4.392;2023-12-04T02:35:37;10.88;;;5.30;;
43678;SDS011;29279;50.858;4.392;2023-12-04T02:38:05;9.68;;;5.07;;
43678;SDS011;29279;50.858;4.392;2023-12-04T02:40:31;12.32;;;5.30;;
43678;SDS011;29279;50.858;4.392;2023-12-04T02:42:57;8.27;;;4.05;;
43678;SDS011;29279;50.858;4.392;2023-12-04T02:45:23;10.07;;;4.22;;
43678;SDS011;29279;50.858;4.392;2023-12-04T02:47:48;8.63;;;4.78;;
43678;SDS011;29279;50.858;4.392;2023-12-04T02:50:14;10.60;;;5.35;;
43678;SDS011;29279;50.858;4.392;2023-12-04T02:52:40;10.18;;;5.15;;
43678;SDS011;29279;50.858;4.392;2023-12-04T02:55:05;8.90;;;5.07;;
43678;SDS011;29279;50.858;4.392;2023-12-04T02:57:31;10.23;;;5.50;;
43678;SDS011;29279;50.858;4.392;2023-12-04T02:59:57;12.38;;;5.15;;
43678;SDS011;29279;50.858;4.392;2023-12-04T03:02:23;9.63;;;4.88;;
43678;SDS011;29279;50.858;4.392;2023-12-04T03:04:48;9.43;;;5.28;;
43678;SDS011;29279;50.858;4.392;2023-12-04T03:07:14;9.75;;;4.80;;
43678;SDS011;29279;50.858;4.392;2023-12-04T03:09:40;10.65;;;5.43;;
43678;SDS011;29279;50.858;4.392;2023-12-04T03:12:05;7.72;;;4.68;;
43678;SDS011;29279;50.858;4.392;2023-12-04T03:14:31;10.68;;;4.93;;
43678;SDS011;29279;50.858;4.392;2023-12-04T03:16:57;6.95;;;3.10;;
43678;SDS011;29279;50.858;4.392;2023-12-04T03:19:22;12.48;;;5.20;;
43678;SDS011;29279;50.858;4.392;2023-12-04T03:21:48;10.05;;;4.97;;
43678;SDS011;29279;50.858;4.392;2023-12-04T03:24:14;10.73;;;4.30;;
43678;SDS011;29279;50.858;4.392;2023-12-04T03:26:39;10.13;;;5.03;;
43678;SDS011;29279;50.858;4.392;2023-12-04T03:29:05;8.95;;;4.97;;
43678;SDS011;29279;50.858;4.392;2023-12-04T03:31:31;10.07;;;5.22;;
43678;SDS011;29279;50.858;4.392;2023-12-04T03:33:56;8.90;;;4.45;;
43678;SDS011;29279;50.858;4.392;2023-12-04T03:36:22;8.80;;;3.33;;
43678;SDS011;29279;50.858;4.392;2023-12-04T03:38:48;10.55;;;5.15;;
43678;SDS011;29279;50.858;4.392;2023-12-04T03:41:14;11.68;;;5.43;;
43678;SDS011;29279;50.858;4.392;2023-12-04T03:43:40;10.27;;;5.15;;
43678;SDS011;29279;50.858;4.392;2023-12-04T03:46:06;10.63;;;4.72;;
43678;SDS011;29279;50.858;4.392;2023-12-04T03:48:31;8.10;;;4.63;;
43678;SDS011;29279;50.858;4.392;2023-12-04T03:50:57;13.75;;;5.03;;
43678;SDS011;29279;50.858;4.392;2023-12-04T03:53:23;10.00;;;4.43;;
43678;SDS011;29279;50.858;4.392;2023-12-04T03:55:48;9.43;;;5.03;;
43678;SDS011;29279;50.858;4.392;2023-12-04T03:58:14;8.00;;;4.80;;
43678;SDS011;29279;50.858;4.392;2023-12-04T04:00:40;9.20;;;4.90;;
43678;SDS011;29279;50.858;4.392;2023-12-04T04:03:08;9.60;;;3.55;;
43678;SDS011;29279;50.858;4.392;2023-12-04T04:05:34;10.43;;;5.40;;
43678;SDS011;29279;50.858;4.392;2023-12-04T04:08:00;10.98;;;5.55;;
43678;SDS011;29279;50.858;4.392;2023-12-04T04:10:25;7.28;;;4.30;;
43678;SDS011;29279;50.858;4.392;2023-12-04T04:12:51;16.73;;;5.55;;
43678;SDS011;29279;50.858;4.392;2023-12-04T04:15:17;8.93;;;4.60;;
43678;SDS011;29279;50.858;4.392;2023-12-04T04:17:42;11.55;;;4.78;;
43678;SDS011;29279;50.858;4.392;2023-12-04T04:20:08;11.43;;;4.88;;
43678;SDS011;29279;50.858;4.392;2023-12-04T04:22:35;7.35;;;4.22;;
43678;SDS011;29279;50.858;4.392;2023-12-04T04:25:05;10.50;;;4.57;;
43678;SDS011;29279;50.858;4.392;2023-12-04T04:27:32;8.80;;;4.82;;
43678;SDS011;29279;50.858;4.392;2023-12-04T04:29:58;10.25;;;4.68;;
43678;SDS011;29279;50.858;4.392;2023-12-04T04:32:23;11.68;;;6.00;;
43678;SDS011;29279;50.858;4.392;2023-12-04T04:34:49;12.05;;;5.97;;
43678;SDS011;29279;50.858;4.392;2023-12-04T04:37:15;12.27;;;5.15;;
43678;SDS011;29279;50.858;4.392;2023-12-04T04:39:40;8.38;;;4.13;;
43678;SDS011;29279;50.858;4.392;2023-12-04T04:42:06;14.38;;;5.68;;
43678;SDS011;29279;50.858;4.392;2023-12-04T04:44:32;8.45;;;4.88;;
43678;SDS011;29279;50.858;4.392;2023-12-04T04:46:58;8.18;;;3.90;;
43678;SDS011;29279;50.858;4.392;2023-12-04T04:49:23;8.48;;;4.32;;
43678;SDS011;29279;50.858;4.392;2023-12-04T04:51:49;8.48;;;4.18;;
43678;SDS011;29279;50.858;4.392;2023-12-04T04:54:15;8.93;;;4.60;;
43678;SDS011;29279;50.858;4.392;2023-12-04T04:56:40;8.95;;;4.00;;
43678;SDS011;29279;50.858;4.392;2023-12-04T04:59:06;8.82;;;4.60;;
43678;SDS011;29279;50.858;4.392;2023-12-04T05:01:32;7.88;;;3.60;;
43678;SDS011;29279;50.858;4.392;2023-12-04T05:03:57;7.13;;;4.22;;
43678;SDS011;29279;50.858;4.392;2023-12-04T05:06:23;7.07;;;3.67;;
43678;SDS011;29279;50.858;4.392;2023-12-04T05:08:49;8.43;;;4.60;;
43678;SDS011;29279;50.858;4.392;2023-12-04T05:11:18;9.68;;;5.03;;
43678;SDS011;29279;50.858;4.392;2023-12-04T05:13:47;8.57;;;4.05;;
43678;SDS011;29279;50.858;4.392;2023-12-04T05:16:13;6.43;;;3.60;;
43678;SDS011;29279;50.858;4.392;2023-12-04T05:18:39;7.20;;;4.07;;
43678;SDS011;29279;50.858;4.392;2023-12-04T05:21:11;7.55;;;4.50;;
43678;SDS011;29279;50.858;4.392;2023-12-04T05:23:40;6.63;;;3.55;;
43678;SDS011;29279;50.858;4.392;2023-12-04T05:26:06;6.57;;;3.05;;
43678;SDS011;29279;50.858;4.392;2023-12-04T05:28:33;6.90;;;3.45;;
43678;SDS011;29279;50.858;4.392;2023-12-04T05:30:59;6.78;;;3.55;;
43678;SDS011;29279;50.858;4.392;2023-12-04T05:33:25;7.13;;;3.78;;
43678;SDS011;29279;50.858;4.392;2023-12-04T05:35:51;6.40;;;3.42;;
43678;SDS011;29279;50.858;4.392;2023-12-04T05:38:17;5.85;;;3.40;;
43678;SDS011;29279;50.858;4.392;2023-12-04T05:40:43;7.13;;;2.88;;
43678;SDS011;29279;50.858;4.392;2023-12-04T05:43:09;5.90;;;3.47;;
43678;SDS011;29279;50.858;4.392;2023-12-04T05:45:35;8.45;;;3.97;;
43678;SDS011;29279;50.858;4.392;2023-12-04T05:48:00;9.13;;;3.72;;
43678;SDS011;29279;50.858;4.392;2023-12-04T05:50:26;5.43;;;2.78;;
43678;SDS011;29279;50.858;4.392;2023-12-04T05:52:52;8.75;;;3.63;;
43678;SDS011;29279;50.858;4.392;2023-12-04T05:55:18;6.43;;;3.90;;
43678;SDS011;29279;50.858;4.392;2023-12-04T05:57:45;6.97;;;3.70;;
43678;SDS011;29279;50.858;4.392;2023-12-04T06:00:11;6.25;;;3.17;;
43678;SDS011;29279;50.858;4.392;2023-12-04T06:02:38;7.30;;;3.30;;
43678;SDS011;29279;50.858;4.392;2023-12-04T06:05:04;7.18;;;3.05;;
43678;SDS011;29279;50.858;4.392;2023-12-04T06:07:33;6.00;;;3.22;;
43678;SDS011;29279;50.858;4.392;2023-12-04T06:09:59;7.72;;;3.80;;
43678;SDS011;29279;50.858;4.392;2023-12-04T06:12:25;5.82;;;3.47;;
43678;SDS011;29279;50.858;4.392;2023-12-04T06:14:50;11.63;;;4.40;;
43678;SDS011;29279;50.858;4.392;2023-12-04T06:17:16;5.65;;;3.38;;
43678;SDS011;29279;50.858;4.392;2023-12-04T06:19:42;6.28;;;3.40;;
43678;SDS011;29279;50.858;4.392;2023-12-04T06:22:07;6.95;;;3.50;;
43678;SDS011;29279;50.858;4.392;2023-12-04T06:24:33;7.88;;;3.72;;
43678;SDS011;29279;50.858;4.392;2023-12-04T06:26:59;5.97;;;3.50;;
43678;SDS011;29279;50.858;4.392;2023-12-04T06:29:25;7.13;;;3.63;;
43678;SDS011;29279;50.858;4.392;2023-12-04T06:31:51;7.40;;;3.13;;
43678;SDS011;29279;50.858;4.392;2023-12-04T06:34:18;6.93;;;3.50;;
43678;SDS011;29279;50.858;4.392;2023-12-04T06:36:43;10.75;;;4.32;;
43678;SDS011;29279;50.858;4.392;2023-12-04T06:39:10;5.18;;;3.28;;
43678;SDS011;29279;50.858;4.392;2023-12-04T06:41:37;7.32;;;3.83;;
43678;SDS011;29279;50.858;4.392;2023-12-04T06:44:06;6.70;;;3.63;;
43678;SDS011;29279;50.858;4.392;2023-12-04T06:46:33;7.93;;;3.67;;
43678;SDS011;29279;50.858;4.392;2023-12-04T06:49:02;8.57;;;3.70;;
43678;SDS011;29279;50.858;4.392;2023-12-04T06:51:31;5.82;;;3.65;;
43678;SDS011;29279;50.858;4.392;2023-12-04T06:53:57;6.75;;;3.00;;
43678;SDS011;29279;50.858;4.392;2023-12-04T06:56:23;8.45;;;2.85;;
43678;SDS011;29279;50.858;4.392;2023-12-04T06:58:49;8.15;;;4.40;;
43678;SDS011;29279;50.858;4.392;2023-12-04T07:01:14;5.85;;;3.83;;
43678;SDS011;29279;50.858;4.392;2023-12-04T07:03:40;6.28;;;3.00;;
43678;SDS011;29279;50.858;4.392;2023-12-04T07:06:06;6.40;;;3.50;;
43678;SDS011;29279;50.858;4.392;2023-12-04T07:08:32;6.82;;;4.18;;
43678;SDS011;29279;50.858;4.392;2023-12-04T07:10:57;7.72;;;3.67;;
43678;SDS011;29279;50.858;4.392;2023-12-04T07:13:23;5.55;;;3.33;;
43678;SDS011;29279;50.858;4.392;2023-12-04T07:15:49;7.00;;;3.67;;
43678;SDS011;29279;50.858;4.392;2023-12-04T07:18:14;7.80;;;3.33;;
43678;SDS011;29279;50.858;4.392;2023-12-04T07:20:40;8.95;;;3.83;;
43678;SDS011;29279;50.858;4.392;2023-12-04T07:23:05;7.80;;;4.30;;
43678;SDS011;29279;50.858;4.392;2023-12-04T07:25:31;7.00;;;3.70;;
43678;SDS011;29279;50.858;4.392;2023-12-04T07:27:57;8.38;;;3.78;;
43678;SDS011;29279;50.858;4.392;2023-12-04T07:30:25;11.50;;;3.15;;
43678;SDS011;29279;50.858;4.392;2023-12-04T07:32:51;9.88;;;4.20;;
43678;SDS011;29279;50.858;4.392;2023-12-04T07:35:18;10.10;;;4.97;;
43678;SDS011;29279;50.858;4.392;2023-12-04T07:37:44;8.18;;;4.22;;
43678;SDS011;29279;50.858;4.392;2023-12-04T07:40:10;7.85;;;3.85;;
43678;SDS011;29279;50.858;4.392;2023-12-04T07:42:36;12.23;;;4.57;;
43678;SDS011;29279;50.858;4.392;2023-12-04T07:45:02;8.55;;;4.60;;
43678;SDS011;29279;50.858;4.392;2023-12-04T07:47:28;7.85;;;4.72;;
43678;SDS011;29279;50.858;4.392;2023-12-04T07:49:54;10.13;;;4.97;;
43678;SDS011;29279;50.858;4.392;2023-12-04T07:52:20;6.30;;;3.30;;
43678;SDS011;29279;50.858;4.392;2023-12-04T07:54:45;7.15;;;3.08;;
43678;SDS011;29279;50.858;4.392;2023-12-04T07:57:11;8.88;;;4.28;;
43678;SDS011;29279;50.858;4.392;2023-12-04T07:59:36;9.68;;;4.88;;
43678;SDS011;29279;50.858;4.392;2023-12-04T08:02:02;7.88;;;3.90;;
43678;SDS011;29279;50.858;4.392;2023-12-04T08:04:28;8.52;;;4.10;;
43678;SDS011;29279;50.858;4.392;2023-12-04T08:06:54;7.40;;;4.05;;
43678;SDS011;29279;50.858;4.392;2023-12-04T08:09:19;10.32;;;4.22;;
43678;SDS011;29279;50.858;4.392;2023-12-04T08:11:46;8.80;;;4.57;;
43678;SDS011;29279;50.858;4.392;2023-12-04T08:14:11;6.78;;;3.42;;
43678;SDS011;29279;50.858;4.392;2023-12-04T08:16:37;9.65;;;4.47;;
43678;SDS011;29279;50.858;4.392;2023-12-04T08:19:03;8.98;;;4.60;;
43678;SDS011;29279;50.858;4.392;2023-12-04T08:21:28;15.07;;;4.80;;
43678;SDS011;29279;50.858;4.392;2023-12-04T08:23:54;9.63;;;4.30;;
43678;SDS011;29279;50.858;4.392;2023-12-04T08:26:23;7.20;;;3.47;;
43678;SDS011;29279;50.858;4.392;2023-12-04T08:28:52;8.73;;;3.88;;
43678;SDS011;29279;50.858;4.392;2023-12-04T08:31:18;6.88;;;3.65;;
43678;SDS011;29279;50.858;4.392;2023-12-04T08:33:44;9.18;;;4.32;;
43678;SDS011;29279;50.858;4.392;2023-12-04T08:36:10;11.65;;;5.95;;
43678;SDS011;29279;50.858;4.392;2023-12-04T08:38:36;11.65;;;5.30;;
43678;SDS011;29279;50.858;4.392;2023-12-04T08:41:05;9.07;;;4.43;;
43678;SDS011;29279;50.858;4.392;2023-12-04T08:43:31;11.52;;;6.30;;
43678;SDS011;29279;50.858;4.392;2023-12-04T08:45:57;15.20;;;5.65;;
43678;SDS011;29279;50.858;4.392;2023-12-04T08:48:25;9.13;;;4.95;;
43678;SDS011;29279;50.858;4.392;2023-12-04T08:50:50;13.27;;;4.95;;
43678;SDS011;29279;50.858;4.392;2023-12-04T08:53:16;11.07;;;5.28;;
43678;SDS011;29279;50.858;4.392;2023-12-04T08:55:42;10.50;;;5.47;;
43678;SDS011;29279;50.858;4.392;2023-12-04T08:58:07;11.50;;;5.47;;
43678;SDS011;29279;50.858;4.392;2023-12-04T09:00:33;9.68;;;5.32;;
43678;SDS011;29279;50.858;4.392;2023-12-04T09:03:02;9.60;;;4.05;;
43678;SDS011;29279;50.858;4.392;2023-12-04T09:05:28;10.20;;;5.20;;
43678;SDS011;29279;50.858;4.392;2023-12-04T09:07:53;10.82;;;5.32;;
43678;SDS011;29279;50.858;4.392;2023-12-04T09:10:20;8.50;;;4.07;;
43678;SDS011;29279;50.858;4.392;2023-12-04T09:12:46;11.52;;;5.35;;
43678;SDS011;29279;50.858;4.392;2023-12-04T09:15:11;10.32;;;4.65;;
43678;SDS011;29279;50.858;4.392;2023-12-04T09:17:37;7.72;;;3.92;;
43678;SDS011;29279;50.858;4.392;2023-12-04T09:20:04;8.63;;;4.55;;
43678;SDS011;29279;50.858;4.392;2023-12-04T09:22:30;11.20;;;5.00;;
43678;SDS011;29279;50.858;4.392;2023-12-04T09:24:56;7.13;;;3.90;;
43678;SDS011;29279;50.858;4.392;2023-12-04T09:27:22;9.05;;;5.45;;
43678;SDS011;29279;50.858;4.392;2023-12-04T09:29:48;8.55;;;4.47;;
43678;SDS011;29279;50.858;4.392;2023-12-04T09:32:14;10.40;;;5.53;;
43678;SDS011;29279;50.858;4.392;2023-12-04T09:34:39;10.63;;;6.10;;
43678;SDS011;29279;50.858;4.392;2023-12-04T09:37:05;11.30;;;6.30;;
43678;SDS011;29279;50.858;4.392;2023-12-04T09:39:32;9.38;;;4.60;;
43678;SDS011;29279;50.858;4.392;2023-12-04T09:41:58;11.23;;;5.75;;
43678;SDS011;29279;50.858;4.392;2023-12-04T09:44:24;9.00;;;5.07;;
43678;SDS011;29279;50.858;4.392;2023-12-04T09:46:53;10.55;;;5.07;;
43678;SDS011;29279;50.858;4.392;2023-12-04T09:49:19;6.97;;;3.85;;
43678;SDS011;29279;50.858;4.392;2023-12-04T09:51:45;10.38;;;5.97;;
43678;SDS011;29279;50.858;4.392;2023-12-04T09:54:11;15.10;;;6.18;;
43678;SDS011;29279;50.858;4.392;2023-12-04T09:56:37;10.88;;;5.38;;
43678;SDS011;29279;50.858;4.392;2023-12-04T09:59:03;9.00;;;5.57;;
43678;SDS011;29279;50.858;4.392;2023-12-04T10:01:31;14.68;;;7.00;;
43678;SDS011;29279;50.858;4.392;2023-12-04T10:03:58;10.50;;;5.93;;
43678;SDS011;29279;50.858;4.392;2023-12-04T10:06:27;12.75;;;7.55;;
43678;SDS011;29279;50.858;4.392;2023-12-04T10:08:56;9.48;;;4.45;;
43678;SDS011;29279;50.858;4.392;2023-12-04T10:11:23;8.77;;;4.60;;
43678;SDS011;29279;50.858;4.392;2023-12-04T10:13:51;10.90;;;5.05;;
43678;SDS011;29279;50.858;4.392;2023-12-04T10:16:33;14.23;;;7.97;;
43678;SDS011;29279;50.858;4.392;2023-12-04T10:19:17;8.75;;;5.18;;
43678;SDS011;29279;50.858;4.392;2023-12-04T10:21:57;10.25;;;5.30;;
43678;SDS011;29279;50.858;4.392;2023-12-04T10:27:00;13.65;;;8.27;;
43678;SDS011;29279;50.858;4.392;2023-12-04T10:29:47;12.18;;;6.60;;
43678;SDS011;29279;50.858;4.392;2023-12-04T10:32:20;13.88;;;7.03;;
43678;SDS011;29279;50.858;4.392;2023-12-04T10:34:46;10.50;;;4.55;;
43678;SDS011;29279;50.858;4.392;2023-12-04T10:37:12;12.55;;;5.93;;
43678;SDS011;29279;50.858;4.392;2023-12-04T10:39:49;14.32;;;7.40;;
43678;SDS011;29279;50.858;4.392;2023-12-04T10:44:55;19.33;;;8.25;;
43678;SDS011;29279;50.858;4.392;2023-12-04T10:47:22;16.50;;;6.70;;
43678;SDS011;29279;50.858;4.392;2023-12-04T10:49:49;11.27;;;6.03;;
43678;SDS011;29279;50.858;4.392;2023-12-04T10:52:16;12.43;;;5.05;;
43678;SDS011;29279;50.858;4.392;2023-12-04T10:54:48;12.40;;;5.93;;
43678;SDS011;29279;50.858;4.392;2023-12-04T10:57:27;10.13;;;4.30;;
43678;SDS011;29279;50.858;4.392;2023-12-04T10:59:57;10.70;;;4.53;;
43678;SDS011;29279;50.858;4.392;2023-12-04T11:02:26;13.57;;;6.70;;
43678;SDS011;29279;50.858;4.392;2023-12-04T11:05:19;12.05;;;5.97;;
43678;SDS011;29279;50.858;4.392;2023-12-04T11:07:59;11.55;;;5.72;;
43678;SDS011;29279;50.858;4.392;2023-12-04T11:10:27;13.40;;;6.82;;
43678;SDS011;29279;50.858;4.392;2023-12-04T11:12:56;12.13;;;6.70;;
43678;SDS011;29279;50.858;4.392;2023-12-04T11:15:30;12.40;;;6.00;;
43678;SDS011;29279;50.858;4.392;2023-12-04T11:17:59;12.38;;;6.43;;
43678;SDS011;29279;50.858;4.392;2023-12-04T11:20:29;12.73;;;6.95;;
43678;SDS011;29279;50.858;4.392;2023-12-04T11:23:01;11.93;;;5.97;;
43678;SDS011;29279;50.858;4.392;2023-12-04T11:25:31;9.93;;;5.13;;
43678;SDS011;29279;50.858;4.392;2023-12-04T11:27:59;12.30;;;5.25;;
43678;SDS011;29279;50.858;4.392;2023-12-04T11:30:26;12.55;;;6.60;;
43678;SDS011;29279;50.858;4.392;2023-12-04T11:32:54;6.93;;;3.88;;
43678;SDS011;29279;50.858;4.392;2023-12-04T11:35:22;8.45;;;4.82;;
43678;SDS011;29279;50.858;4.392;2023-12-04T11:37:51;8.48;;;4.50;;
43678;SDS011;29279;50.858;4.392;2023-12-04T11:40:17;9.32;;;5.45;;
43678;SDS011;29279;50.858;4.392;2023-12-04T11:42:43;9.23;;;4.07;;
43678;SDS011;29279;50.858;4.392;2023-12-04T11:45:10;10.45;;;5.43;;
43678;SDS011;29279;50.858;4.392;2023-12-04T11:47:56;9.98;;;5.78;;
43678;SDS011;29279;50.858;4.392;2023-12-04T11:50:25;7.80;;;4.32;;
43678;SDS011;29279;50.858;4.392;2023-12-04T11:52:52;9.32;;;5.22;;
43678;SDS011;29279;50.858;4.392;2023-12-04T11:55:22;8.98;;;4.78;;
43678;SDS011;29279;50.858;4.392;2023-12-04T11:57:51;6.07;;;3.67;;
43678;SDS011;29279;50.858;4.392;2023-12-04T12:00:20;10.27;;;5.07;;
43678;SDS011;29279;50.858;4.392;2023-12-04T12:02:48;20.85;;;4.22;;
43678;SDS011;29279;50.858;4.392;2023-12-04T12:05:17;8.85;;;5.38;;
43678;SDS011;29279;50.858;4.392;2023-12-04T12:07:42;9.45;;;5.32;;
43678;SDS011;29279;50.858;4.392;2023-12-04T12:10:09;6.97;;;3.67;;
43678;SDS011;29279;50.858;4.392;2023-12-04T12:12:36;10.10;;;4.88;;
43678;SDS011;29279;50.858;4.392;2023-12-04T12:15:02;10.63;;;5.63;;
43678;SDS011;29279;50.858;4.392;2023-12-04T12:17:28;8.23;;;4.55;;
43678;SDS011;29279;50.858;4.392;2023-12-04T12:19:54;5.40;;;3.33;;
43678;SDS011;29279;50.858;4.392;2023-12-04T12:22:22;8.95;;;5.18;;
43678;SDS011;29279;50.858;4.392;2023-12-04T12:24:48;9.75;;;4.68;;
43678;SDS011;29279;50.858;4.392;2023-12-04T12:27:15;7.43;;;3.95;;
43678;SDS011;29279;50.858;4.392;2023-12-04T12:29:41;6.70;;;3.13;;
43678;SDS011;29279;50.858;4.392;2023-12-04T12:32:06;7.13;;;4.78;;
43678;SDS011;29279;50.858;4.392;2023-12-04T12:34:32;8.20;;;4.00;;
43678;SDS011;29279;50.858;4.392;2023-12-04T12:37:01;8.20;;;3.90;;
43678;SDS011;29279;50.858;4.392;2023-12-04T12:39:28;9.38;;;4.13;;
43678;SDS011;29279;50.858;4.392;2023-12-04T12:41:55;10.07;;;5.72;;
43678;SDS011;29279;50.858;4.392;2023-12-04T12:44:21;9.25;;;4.75;;
43678;SDS011;29279;50.858;4.392;2023-12-04T12:46:47;8.57;;;5.07;;
43678;SDS011;29279;50.858;4.392;2023-12-04T12:49:16;9.88;;;4.28;;
43678;SDS011;29279;50.858;4.392;2023-12-04T12:51:43;7.80;;;4.85;;
43678;SDS011;29279;50.858;4.392;2023-12-04T12:54:10;11.65;;;5.03;;
43678;SDS011;29279;50.858;4.392;2023-12-04T12:56:36;7.68;;;4.45;;
43678;SDS011;29279;50.858;4.392;2023-12-04T12:59:01;7.65;;;4.72;;
43678;SDS011;29279;50.858;4.392;2023-12-04T13:01:33;10.25;;;4.18;;
43678;SDS011;29279;50.858;4.392;2023-12-04T13:04:00;6.93;;;4.50;;
43678;SDS011;29279;50.858;4.392;2023-12-04T13:06:25;9.55;;;4.93;;
43678;SDS011;29279;50.858;4.392;2023-12-04T13:08:51;10.45;;;5.20;;
43678;SDS011;29279;50.858;4.392;2023-12-04T13:11:17;9.15;;;4.95;;
43678;SDS011;29279;50.858;4.392;2023-12-04T13:13:43;12.20;;;5.43;;
43678;SDS011;29279;50.858;4.392;2023-12-04T13:16:09;8.50;;;5.40;;
43678;SDS011;29279;50.858;4.392;2023-12-04T13:18:35;8.73;;;5.00;;
43678;SDS011;29279;50.858;4.392;2023-12-04T13:21:02;7.15;;;4.60;;
43678;SDS011;29279;50.858;4.392;2023-12-04T13:23:28;8.35;;;5.22;;
43678;SDS011;29279;50.858;4.392;2023-12-04T13:25:54;8.05;;;5.13;;
43678;SDS011;29279;50.858;4.392;2023-12-04T13:28:20;7.53;;;3.63;;
43678;SDS011;29279;50.858;4.392;2023-12-04T13:30:46;10.07;;;4.75;;
43678;SDS011;29279;50.858;4.392;2023-12-04T13:33:11;10.82;;;5.35;;
43678;SDS011;29279;50.858;4.392;2023-12-04T13:35:37;5.60;;;3.38;;
43678;SDS011;29279;50.858;4.392;2023-12-04T13:38:03;7.15;;;4.45;;
43678;SDS011;29279;50.858;4.392;2023-12-04T13:40:32;9.52;;;5.15;;
43678;SDS011;29279;50.858;4.392;2023-12-04T13:42:59;4.63;;;2.97;;
43678;SDS011;29279;50.858;4.392;2023-12-04T13:45:44;7.72;;;4.68;;
43678;SDS011;29279;50.858;4.392;2023-12-04T13:48:09;7.75;;;4.57;;
43678;SDS011;29279;50.858;4.392;2023-12-04T13:50:35;7.38;;;4.63;;
43678;SDS011;29279;50.858;4.392;2023-12-04T13:53:02;7.78;;;3.90;;
43678;SDS011;29279;50.858;4.392;2023-12-04T13:55:28;11.32;;;5.15;;
43678;SDS011;29279;50.858;4.392;2023-12-04T13:58:32;8.13;;;4.93;;
43678;SDS011;29279;50.858;4.392;2023-12-04T14:01:09;5.75;;;3.55;;
43678;SDS011;29279;50.858;4.392;2023-12-04T14:03:42;7.25;;;5.00;;
43678;SDS011;29279;50.858;4.392;2023-12-04T14:06:08;9.20;;;4.90;;
43678;SDS011;29279;50.858;4.392;2023-12-04T14:08:34;12.25;;;5.40;;
43678;SDS011;29279;50.858;4.392;2023-12-04T14:11:01;9.88;;;5.43;;
43678;SDS011;29279;50.858;4.392;2023-12-04T14:13:27;7.70;;;5.05;;
43678;SDS011;29279;50.858;4.392;2023-12-04T14:15:53;12.18;;;5.03;;
43678;SDS011;29279;50.858;4.392;2023-12-04T14:18:19;10.13;;;5.57;;
43678;SDS011;29279;50.858;4.392;2023-12-04T14:20:45;5.65;;;3.17;;
43678;SDS011;29279;50.858;4.392;2023-12-04T14:23:11;8.40;;;4.95;;
43678;SDS011;29279;50.858;4.392;2023-12-04T14:25:37;6.90;;;5.28;;
43678;SDS011;29279;50.858;4.392;2023-12-04T14:28:02;6.47;;;3.75;;
43678;SDS011;29279;50.858;4.392;2023-12-04T14:30:28;15.25;;;4.72;;
43678;SDS011;29279;50.858;4.392;2023-12-04T14:32:54;5.82;;;3.92;;
43678;SDS011;29279;50.858;4.392;2023-12-04T14:35:20;9.52;;;5.80;;
43678;SDS011;29279;50.858;4.392;2023-12-04T14:37:46;16.00;;;5.70;;
43678;SDS011;29279;50.858;4.392;2023-12-04T14:40:12;7.65;;;3.17;;
43678;SDS011;29279;50.858;4.392;2023-12-04T14:42:42;16.00;;;5.97;;
43678;SDS011;29279;50.858;4.392;2023-12-04T14:45:09;10.88;;;4.07;;
43678;SDS011;29279;50.858;4.392;2023-12-04T14:47:35;10.27;;;5.25;;
43678;SDS011;29279;50.858;4.392;2023-12-04T14:50:02;5.47;;;3.28;;
43678;SDS011;29279;50.858;4.392;2023-12-04T14:52:28;9.85;;;4.80;;
43678;SDS011;29279;50.858;4.392;2023-12-04T14:54:54;10.18;;;5.20;;
43678;SDS011;29279;50.858;4.392;2023-12-04T14:57:35;10.18;;;5.20;;
43678;SDS011;29279;50.858;4.392;2023-12-04T15:00:04;14.80;;;5.75;;
43678;SDS011;29279;50.858;4.392;2023-12-04T15:02:34;9.85;;;5.05;;
43678;SDS011;29279;50.858;4.392;2023-12-04T15:05:21;8.38;;;4.45;;
43678;SDS011;29279;50.858;4.392;2023-12-04T15:08:05;14.48;;;5.25;;
43678;SDS011;29279;50.858;4.392;2023-12-04T15:10:50;10.57;;;5.93;;